Time;durP1;ratioP1;P1;durP2;ratioP2;P2;SDS_P1;SDS_P2;PMS_P1;PMS_P2;Temp;Humidity;BMP_temperature;BMP_pressure;BME280_temperature;BME280_humidity;BME280_pressure;Samples;Min_cycle;Max_cycle;Signal;HPM_P1;HPM_P2
2022/11/22 00:00:43;;;;;;;11.95;7.30;;;3.40;99.90;;;;;;5018571;28;20496;-69
2022/11/22 00:03:11;;;;;;;13.80;7.07;;;3.50;99.90;;;;;;5020470;28;20472;-69
2022/11/22 00:05:38;;;;;;;11.88;6.82;;;3.50;99.90;;;;;;5026148;28;20046;-69
2022/11/22 00:08:06;;;;;;;12.40;7.07;;;3.50;99.90;;;;;;5018254;28;20064;-69
2022/11/22 00:10:34;;;;;;;11.45;7.30;;;3.40;99.90;;;;;;5026809;28;20057;-70
2022/11/22 00:13:03;;;;;;;11.57;6.75;;;3.40;99.90;;;;;;5018208;28;20099;-70
2022/11/22 00:15:31;;;;;;;12.35;6.80;;;3.40;99.90;;;;;;5016935;28;20048;-69
2022/11/22 00:17:59;;;;;;;12.00;6.57;;;3.50;99.90;;;;;;5000687;28;20069;-69
2022/11/22 00:20:26;;;;;;;11.57;6.80;;;3.50;99.90;;;;;;5016879;28;20165;-69
2022/11/22 00:22:55;;;;;;;10.25;6.82;;;3.50;99.90;;;;;;5026355;28;20045;-69
2022/11/22 00:25:23;;;;;;;13.80;7.50;;;3.50;99.90;;;;;;5018182;28;20042;-69
2022/11/22 00:27:50;;;;;;;10.98;7.07;;;3.60;99.90;;;;;;5016856;28;20042;-70
2022/11/22 00:30:18;;;;;;;13.75;7.28;;;3.60;99.90;;;;;;5017443;28;20049;-69
2022/11/22 00:32:45;;;;;;;11.77;6.68;;;3.60;99.90;;;;;;5013205;28;20061;-70
2022/11/22 00:35:12;;;;;;;14.25;7.60;;;3.60;99.90;;;;;;5026212;28;20068;-69
2022/11/22 00:37:40;;;;;;;12.18;7.20;;;3.70;99.90;;;;;;5016861;28;20049;-70
2022/11/22 00:40:08;;;;;;;12.55;7.18;;;3.60;99.90;;;;;;5018285;28;20408;-70
2022/11/22 00:42:35;;;;;;;10.82;7.30;;;3.60;99.90;;;;;;5022299;28;20424;-70
2022/11/22 00:45:03;;;;;;;13.57;7.15;;;3.60;99.90;;;;;;5018487;28;20061;-70
2022/11/22 00:47:30;;;;;;;10.98;6.78;;;3.60;99.90;;;;;;5024019;28;20789;-71
2022/11/22 00:49:57;;;;;;;10.75;6.72;;;3.60;99.90;;;;;;5002169;28;20535;-70
2022/11/22 00:52:25;;;;;;;12.02;7.28;;;3.60;99.90;;;;;;5014709;28;20049;-69
2022/11/22 00:54:52;;;;;;;11.90;6.50;;;3.70;99.90;;;;;;5028048;28;20364;-70
2022/11/22 00:57:21;;;;;;;9.43;5.88;;;3.70;99.90;;;;;;5027128;28;20053;-69
2022/11/22 00:59:49;;;;;;;11.02;6.60;;;3.60;99.90;;;;;;5012159;28;20120;-69
2022/11/22 01:02:16;;;;;;;12.02;6.20;;;3.60;99.90;;;;;;4994837;28;20436;-70
2022/11/22 01:04:43;;;;;;;7.75;5.60;;;3.60;99.90;;;;;;5027161;28;20066;-70
2022/11/22 01:07:11;;;;;;;10.60;6.22;;;3.60;99.90;;;;;;5025406;28;20060;-70
2022/11/22 01:09:38;;;;;;;9.73;5.97;;;3.70;99.90;;;;;;5011516;28;20034;-70
2022/11/22 01:12:05;;;;;;;9.98;6.05;;;3.60;99.90;;;;;;5027131;28;20064;-70
2022/11/22 01:14:33;;;;;;;9.30;6.10;;;3.60;99.90;;;;;;5024114;28;20045;-69
2022/11/22 01:17:00;;;;;;;9.65;6.20;;;3.70;99.90;;;;;;5019262;28;20053;-70
2022/11/22 01:19:27;;;;;;;8.77;6.00;;;3.70;99.90;;;;;;5028783;28;20049;-69
2022/11/22 01:21:55;;;;;;;11.05;5.97;;;3.70;99.90;;;;;;5005334;28;20065;-70
2022/11/22 01:24:22;;;;;;;10.18;6.28;;;3.70;99.90;;;;;;5025299;28;20569;-70
2022/11/22 01:26:50;;;;;;;10.35;5.88;;;3.70;99.90;;;;;;5023562;28;20034;-70
2022/11/22 01:29:17;;;;;;;9.07;5.55;;;3.70;99.90;;;;;;5030000;28;20494;-70
2022/11/22 01:31:44;;;;;;;8.93;5.38;;;3.70;99.90;;;;;;5017345;28;20380;-70
2022/11/22 01:34:12;;;;;;;9.85;5.55;;;3.70;99.90;;;;;;5031158;28;20107;-69
2022/11/22 01:36:39;;;;;;;8.15;4.68;;;3.70;99.90;;;;;;5012688;28;20389;-69
2022/11/22 01:39:06;;;;;;;7.82;4.65;;;3.70;99.90;;;;;;5008566;28;20100;-70
2022/11/22 01:41:34;;;;;;;8.68;4.63;;;3.70;99.90;;;;;;5022537;28;20034;-69
2022/11/22 01:44:20;;;;;;;7.82;4.07;;;3.70;99.90;;;;;;5020336;28;20057;-69
2022/11/22 01:46:59;;;;;;;6.53;4.30;;;3.80;99.90;;;;;;5023921;28;20050;-69
2022/11/22 01:49:34;;;;;;;8.45;3.90;;;3.80;99.90;;;;;;5012009;28;20037;-70
2022/11/22 01:52:12;;;;;;;6.82;4.38;;;3.80;99.90;;;;;;5019915;28;20046;-70
2022/11/22 01:54:41;;;;;;;7.63;4.53;;;3.80;99.90;;;;;;4997330;28;20057;-70
2022/11/22 01:57:16;;;;;;;6.80;4.10;;;3.70;99.90;;;;;;5023512;28;20534;-70
2022/11/22 01:59:49;;;;;;;7.70;3.90;;;3.70;99.90;;;;;;5016183;28;20042;-70
2022/11/22 02:02:16;;;;;;;8.40;3.97;;;3.70;99.90;;;;;;4997352;28;20069;-70
2022/11/22 02:04:44;;;;;;;9.80;4.00;;;3.70;99.90;;;;;;5015651;28;20049;-71
2022/11/22 02:07:35;;;;;;;8.10;3.88;;;3.60;99.90;;;;;;5020972;28;20046;-70
2022/11/22 02:10:03;;;;;;;7.13;3.88;;;3.60;99.90;;;;;;5024495;28;20052;-70
2022/11/22 02:12:33;;;;;;;5.63;3.45;;;3.60;99.90;;;;;;5030297;28;20053;-69
2022/11/22 02:15:00;;;;;;;6.50;3.70;;;3.60;99.90;;;;;;5020678;28;20476;-70
2022/11/22 02:17:28;;;;;;;8.27;4.18;;;3.70;99.90;;;;;;5028777;28;20563;-69
2022/11/22 02:19:55;;;;;;;7.50;4.25;;;3.60;99.90;;;;;;5029216;28;20507;-69
2022/11/22 02:22:54;;;;;;;9.38;3.72;;;3.60;99.90;;;;;;5014057;28;20045;-70
2022/11/22 02:25:32;;;;;;;8.55;3.50;;;3.70;99.90;;;;;;5032886;28;20045;-70
2022/11/22 02:28:00;;;;;;;6.90;3.60;;;3.70;99.90;;;;;;5030815;28;20045;-70
2022/11/22 02:30:27;;;;;;;7.43;3.72;;;3.70;99.90;;;;;;5012818;28;20047;-71
2022/11/22 02:32:54;;;;;;;7.10;3.25;;;3.80;99.90;;;;;;5013961;28;20053;-69
2022/11/22 02:35:24;;;;;;;7.47;3.60;;;3.70;99.90;;;;;;5026095;28;20065;-70
2022/11/22 02:37:55;;;;;;;5.53;3.25;;;3.70;99.90;;;;;;5001623;28;20054;-70
2022/11/22 02:40:25;;;;;;;6.10;3.35;;;3.70;99.90;;;;;;5010969;28;20041;-70
2022/11/22 02:43:00;;;;;;;6.60;3.08;;;3.70;99.90;;;;;;5029721;28;20049;-69
2022/11/22 02:45:27;;;;;;;6.38;3.50;;;3.70;99.90;;;;;;5007226;28;20041;-69
2022/11/22 02:48:24;;;;;;;7.93;3.90;;;3.80;99.90;;;;;;5013412;28;20057;-69
2022/11/22 02:50:51;;;;;;;6.28;3.60;;;3.80;99.90;;;;;;5017965;28;20055;-69
2022/11/22 02:53:18;;;;;;;7.15;3.67;;;3.80;99.90;;;;;;5030362;28;20064;-70
2022/11/22 02:55:46;;;;;;;7.20;3.72;;;3.90;99.90;;;;;;5028672;28;20045;-70
2022/11/22 02:58:13;;;;;;;6.40;3.50;;;3.90;99.90;;;;;;5019722;28;20053;-69
2022/11/22 03:00:40;;;;;;;6.65;4.00;;;4.00;99.90;;;;;;5026877;28;20049;-70
2022/11/22 03:03:08;;;;;;;5.38;3.20;;;4.00;99.90;;;;;;5024479;28;20492;-70
2022/11/22 03:05:35;;;;;;;7.38;3.88;;;4.10;99.90;;;;;;5027740;28;20033;-70
2022/11/22 03:08:02;;;;;;;7.22;3.85;;;4.10;99.90;;;;;;5021739;28;20544;-69
2022/11/22 03:10:29;;;;;;;6.57;3.80;;;4.10;99.90;;;;;;5028293;28;20059;-70
2022/11/22 03:12:58;;;;;;;6.93;3.78;;;4.10;99.90;;;;;;5030025;28;20045;-69
2022/11/22 03:15:26;;;;;;;7.07;3.67;;;4.10;99.90;;;;;;5024273;28;20045;-69
2022/11/22 03:18:00;;;;;;;6.75;3.55;;;4.10;99.90;;;;;;5032084;28;20423;-69
2022/11/22 03:20:29;;;;;;;5.35;3.65;;;4.00;99.90;;;;;;5031222;28;20456;-69
2022/11/22 03:22:56;;;;;;;6.93;4.20;;;4.00;99.90;;;;;;5028193;28;20048;-70
2022/11/22 03:25:23;;;;;;;6.45;3.80;;;4.00;99.90;;;;;;5010537;28;20077;-69
2022/11/22 03:27:51;;;;;;;6.28;3.42;;;4.00;99.90;;;;;;5030223;28;20597;-69
2022/11/22 03:30:19;;;;;;;5.72;3.53;;;4.00;99.90;;;;;;5018624;28;20516;-70
2022/11/22 03:32:46;;;;;;;6.30;3.60;;;4.10;99.90;;;;;;5029204;28;20040;-70
2022/11/22 03:35:13;;;;;;;8.48;3.83;;;4.00;99.90;;;;;;5032639;28;20052;-70
2022/11/22 03:37:41;;;;;;;6.03;3.58;;;4.10;99.90;;;;;;5024024;28;20810;-70
2022/11/22 03:40:08;;;;;;;7.43;3.35;;;4.10;99.90;;;;;;5029775;28;20535;-70
2022/11/22 03:42:36;;;;;;;6.22;3.80;;;4.20;99.90;;;;;;5013992;28;20397;-70
2022/11/22 03:45:04;;;;;;;7.82;3.55;;;4.20;99.90;;;;;;5026312;28;20045;-70
2022/11/22 03:47:31;;;;;;;8.93;3.60;;;4.20;99.90;;;;;;5030592;28;20431;-70
2022/11/22 03:49:58;;;;;;;6.80;3.50;;;4.20;99.90;;;;;;5023551;28;20045;-70
2022/11/22 03:52:25;;;;;;;7.25;3.65;;;4.20;99.90;;;;;;5029557;28;20042;-71
2022/11/22 03:54:53;;;;;;;9.68;3.70;;;4.30;99.90;;;;;;5020208;28;20048;-70
2022/11/22 03:57:20;;;;;;;10.60;3.75;;;4.30;99.90;;;;;;5014709;28;20045;-69
2022/11/22 03:59:47;;;;;;;6.85;3.95;;;4.30;99.90;;;;;;5025252;28;20049;-70
2022/11/22 04:02:15;;;;;;;7.00;4.25;;;4.30;99.90;;;;;;5030710;28;20033;-70
2022/11/22 04:04:43;;;;;;;10.52;6.45;;;4.30;99.90;;;;;;5023667;28;20050;-70
2022/11/22 04:07:10;;;;;;;7.85;5.25;;;4.40;99.90;;;;;;5024939;28;20144;-68
2022/11/22 04:09:37;;;;;;;8.52;4.97;;;4.40;99.90;;;;;;5030111;28;20125;-69
2022/11/22 04:12:05;;;;;;;10.07;4.60;;;4.50;99.90;;;;;;5026671;28;20503;-69
2022/11/22 04:17:39;;;;;;;8.32;4.45;;;4.50;99.90;;;;;;5029578;28;20146;-70
2022/11/22 04:23:13;;;;;;;8.02;4.53;;;4.50;99.90;;;;;;5020330;28;20507;-70
2022/11/22 04:25:47;;;;;;;5.88;3.70;;;4.50;99.90;;;;;;5020498;28;20052;-70
2022/11/22 04:28:18;;;;;;;7.90;4.32;;;4.50;99.90;;;;;;5026615;28;20045;-70
2022/11/22 04:33:30;;;;;;;9.00;5.07;;;4.50;99.90;;;;;;5019974;28;20054;-69
2022/11/22 04:35:58;;;;;;;7.53;4.90;;;4.60;99.90;;;;;;5012541;28;20046;-70
2022/11/22 04:38:25;;;;;;;7.28;4.60;;;4.60;99.90;;;;;;5013935;28;20441;-69
2022/11/22 04:40:53;;;;;;;7.05;3.67;;;4.60;99.90;;;;;;5025890;28;20357;-69
2022/11/22 04:46:15;;;;;;;7.75;3.70;;;4.70;99.90;;;;;;5022029;28;20037;-69
2022/11/22 04:48:42;;;;;;;9.57;4.03;;;4.70;99.90;;;;;;5024955;28;20057;-69
2022/11/22 04:53:59;;;;;;;9.95;5.47;;;4.70;99.90;;;;;;5024994;28;20433;-70
2022/11/22 04:56:26;;;;;;;11.70;5.82;;;4.70;99.90;;;;;;5025333;28;20048;-69
2022/11/22 04:58:53;;;;;;;13.52;6.35;;;4.70;99.90;;;;;;5005414;28;20611;-69
2022/11/22 05:01:21;;;;;;;6.47;3.70;;;4.70;99.90;;;;;;5017180;28;20500;-70
2022/11/22 05:03:48;;;;;;;7.63;4.00;;;4.70;99.90;;;;;;5023489;28;20061;-70
2022/11/22 05:06:16;;;;;;;8.48;4.05;;;4.70;99.90;;;;;;4999002;28;20445;-69
2022/11/22 05:08:43;;;;;;;6.63;4.10;;;4.70;99.90;;;;;;5021477;28;20447;-68
2022/11/22 05:11:10;;;;;;;6.15;3.92;;;4.70;99.90;;;;;;5028237;28;20038;-70
2022/11/22 05:13:40;;;;;;;6.53;3.55;;;4.60;99.90;;;;;;5018526;28;20065;-70
2022/11/22 05:16:10;;;;;;;6.35;3.92;;;4.70;99.90;;;;;;5025073;28;21058;-70
2022/11/22 05:18:38;;;;;;;8.77;4.18;;;4.80;99.90;;;;;;5027546;28;20033;-70
2022/11/22 05:21:10;;;;;;;8.10;3.92;;;4.80;99.90;;;;;;5026915;28;20057;-69
2022/11/22 05:23:53;;;;;;;8.02;3.83;;;4.80;99.90;;;;;;5027273;28;20049;-69
2022/11/22 05:26:26;;;;;;;9.13;3.88;;;4.80;99.90;;;;;;5027325;28;20071;-70
2022/11/22 05:28:55;;;;;;;6.65;4.13;;;4.80;99.90;;;;;;5019333;28;20037;-69
2022/11/22 05:31:26;;;;;;;7.82;3.90;;;4.80;99.90;;;;;;5024514;28;20041;-69
2022/11/22 05:33:55;;;;;;;8.43;4.15;;;4.80;99.90;;;;;;5011800;28;20531;-70
2022/11/22 05:36:23;;;;;;;6.50;4.22;;;4.80;99.90;;;;;;5026459;28;20535;-69
2022/11/22 05:38:51;;;;;;;7.53;3.80;;;4.70;99.90;;;;;;5006291;28;20583;-69
2022/11/22 05:41:18;;;;;;;5.97;4.20;;;4.70;99.90;;;;;;5028091;28;20396;-70
2022/11/22 05:43:46;;;;;;;6.40;4.00;;;4.70;99.90;;;;;;5028449;28;20056;-69
2022/11/22 05:46:14;;;;;;;6.47;4.18;;;4.70;99.90;;;;;;5020730;28;20084;-69
2022/11/22 05:48:49;;;;;;;7.47;4.28;;;4.70;99.90;;;;;;5028016;28;20063;-72
2022/11/22 05:51:19;;;;;;;10.15;5.15;;;4.70;99.90;;;;;;5026073;28;20550;-70
2022/11/22 05:53:46;;;;;;;8.02;5.00;;;4.70;99.90;;;;;;5021951;28;20042;-70
2022/11/22 05:56:19;;;;;;;13.48;5.88;;;4.80;99.90;;;;;;5029081;28;20061;-69
2022/11/22 05:58:46;;;;;;;10.15;4.68;;;4.80;99.90;;;;;;5028757;28;20504;-70
2022/11/22 06:01:16;;;;;;;7.57;4.03;;;4.80;99.90;;;;;;5023854;28;20041;-69
2022/11/22 06:03:44;;;;;;;7.38;4.40;;;4.80;99.90;;;;;;5020698;28;20040;-69
2022/11/22 06:06:12;;;;;;;6.78;3.88;;;4.90;99.90;;;;;;5023653;28;20526;-69
2022/11/22 06:08:42;;;;;;;10.27;4.80;;;5.00;99.90;;;;;;5024597;28;20038;-68
2022/11/22 06:11:30;;;;;;;8.98;4.80;;;5.00;99.90;;;;;;5012154;28;20077;-70
2022/11/22 06:14:02;;;;;;;16.15;6.40;;;5.00;99.90;;;;;;5028301;28;20064;-70
2022/11/22 06:16:29;;;;;;;9.73;4.72;;;5.10;99.90;;;;;;5021855;28;20125;-70
2022/11/22 06:18:57;;;;;;;8.07;4.60;;;5.10;99.90;;;;;;5021145;28;20041;-70
2022/11/22 06:21:25;;;;;;;7.97;4.47;;;5.10;99.90;;;;;;5016052;28;20049;-70
2022/11/22 06:23:53;;;;;;;9.05;4.60;;;5.10;99.90;;;;;;5012175;28;20061;-69
2022/11/22 06:26:22;;;;;;;6.78;4.80;;;5.10;99.90;;;;;;5013942;28;20121;-69
2022/11/22 06:28:49;;;;;;;6.90;4.20;;;5.10;99.90;;;;;;5016022;28;20516;-69
2022/11/22 06:31:19;;;;;;;9.10;4.70;;;5.10;99.90;;;;;;4993424;28;20100;-69
2022/11/22 06:33:47;;;;;;;9.63;4.90;;;5.20;99.90;;;;;;5022531;28;20472;-69
2022/11/22 06:36:17;;;;;;;9.27;4.90;;;5.20;99.90;;;;;;5029864;28;20515;-68
2022/11/22 06:38:45;;;;;;;8.85;5.15;;;5.20;99.90;;;;;;5029918;28;20045;-69
2022/11/22 06:41:17;;;;;;;7.95;4.65;;;5.20;99.90;;;;;;5027201;28;20057;-69
2022/11/22 06:43:46;;;;;;;7.03;4.53;;;5.20;99.90;;;;;;5007308;28;20038;-69
2022/11/22 06:46:17;;;;;;;9.02;4.40;;;5.20;99.90;;;;;;5020527;28;20045;-69
2022/11/22 06:48:45;;;;;;;10.90;4.78;;;5.20;99.90;;;;;;5026612;28;20037;-69
2022/11/22 06:51:18;;;;;;;9.13;4.78;;;5.20;99.90;;;;;;5015292;28;20074;-69
2022/11/22 06:53:47;;;;;;;12.00;6.20;;;5.20;99.90;;;;;;5015232;28;20108;-69
2022/11/22 06:56:30;;;;;;;11.73;6.72;;;5.20;99.90;;;;;;5016624;28;20088;-69
2022/11/22 06:59:02;;;;;;;9.60;6.32;;;5.30;99.90;;;;;;5017242;28;20100;-69
2022/11/22 07:01:31;;;;;;;18.45;7.25;;;5.30;99.90;;;;;;5006908;28;20044;-70
2022/11/22 07:04:00;;;;;;;12.68;6.10;;;5.30;99.90;;;;;;5027283;28;20128;-69
2022/11/22 07:06:32;;;;;;;10.45;6.03;;;5.40;99.90;;;;;;5011671;28;20544;-69
2022/11/22 07:09:02;;;;;;;8.55;5.07;;;5.40;99.90;;;;;;5022033;28;20098;-70
2022/11/22 07:11:31;;;;;;;13.20;6.57;;;5.40;99.90;;;;;;5023356;28;20038;-69
2022/11/22 07:14:00;;;;;;;10.18;5.72;;;5.50;99.90;;;;;;5012992;28;20133;-69
2022/11/22 07:16:34;;;;;;;11.27;6.88;;;5.50;99.90;;;;;;5018689;28;20045;-69
2022/11/22 07:19:02;;;;;;;10.48;6.22;;;5.60;99.90;;;;;;5027618;28;20046;-72
2022/11/22 07:21:31;;;;;;;13.40;6.13;;;5.60;99.90;;;;;;5019152;28;20422;-72
2022/11/22 07:23:58;;;;;;;9.43;5.18;;;5.70;99.90;;;;;;5019403;28;20059;-71
2022/11/22 07:26:25;;;;;;;9.85;5.80;;;5.70;99.90;;;;;;5021282;28;20038;-71
2022/11/22 07:28:53;;;;;;;8.07;5.32;;;5.80;99.90;;;;;;4995419;28;20073;-69
2022/11/22 07:31:20;;;;;;;8.07;5.13;;;5.80;99.90;;;;;;5023133;28;20803;-69
2022/11/22 07:33:49;;;;;;;10.30;5.47;;;5.80;99.90;;;;;;5011352;28;20056;-70
2022/11/22 07:36:19;;;;;;;8.82;4.82;;;5.80;99.90;;;;;;4993910;28;20112;-69
2022/11/22 07:38:48;;;;;;;12.80;5.43;;;5.90;99.90;;;;;;5025231;28;20037;-69
2022/11/22 07:41:17;;;;;;;10.05;5.25;;;5.90;99.90;;;;;;5021044;28;20061;-68
2022/11/22 07:43:45;;;;;;;12.60;5.47;;;5.90;99.90;;;;;;5015777;28;20124;-69
2022/11/22 07:46:29;;;;;;;11.40;5.75;;;5.90;99.90;;;;;;5017830;28;20467;-69
2022/11/22 07:48:59;;;;;;;10.18;4.80;;;6.00;99.90;;;;;;5027914;28;20092;-69
2022/11/22 07:51:27;;;;;;;12.82;5.35;;;6.00;99.90;;;;;;5029821;28;20080;-69
2022/11/22 07:53:55;;;;;;;11.18;5.20;;;5.90;99.90;;;;;;5028134;28;20468;-69
2022/11/22 07:56:23;;;;;;;10.00;5.15;;;6.00;99.90;;;;;;5028703;28;20049;-69
2022/11/22 07:58:50;;;;;;;14.43;5.30;;;6.00;99.90;;;;;;5015484;28;20050;-69
2022/11/22 08:01:18;;;;;;;14.50;5.47;;;5.90;99.90;;;;;;5007185;28;20042;-70
2022/11/22 08:03:46;;;;;;;13.25;5.25;;;5.90;99.90;;;;;;5009872;28;20592;-69
2022/11/22 08:06:14;;;;;;;12.95;4.35;;;6.00;99.90;;;;;;5027615;28;20562;-69
2022/11/22 08:08:41;;;;;;;14.63;5.65;;;6.00;99.90;;;;;;5024313;28;20144;-70
2022/11/22 08:11:10;;;;;;;12.20;5.47;;;6.10;99.90;;;;;;5030844;28;20514;-70
2022/11/22 08:13:37;;;;;;;9.15;4.47;;;6.10;99.90;;;;;;5019295;28;20354;-69
2022/11/22 08:16:12;;;;;;;12.60;5.50;;;6.10;99.90;;;;;;5022544;28;20057;-69
2022/11/22 08:18:40;;;;;;;8.75;4.82;;;6.20;99.90;;;;;;5021024;28;20046;-69
2022/11/22 08:21:10;;;;;;;10.77;5.20;;;6.30;99.90;;;;;;5024139;28;20041;-70
2022/11/22 08:23:38;;;;;;;9.15;4.60;;;6.30;99.90;;;;;;5028952;28;20041;-69
2022/11/22 08:26:08;;;;;;;9.38;4.65;;;6.40;99.90;;;;;;5029146;28;20512;-69
2022/11/22 08:28:35;;;;;;;12.15;5.20;;;6.50;99.90;;;;;;5024280;28;20358;-69
2022/11/22 08:31:12;;;;;;;8.20;4.60;;;6.50;99.90;;;;;;5030500;28;20092;-69
2022/11/22 08:33:40;;;;;;;12.35;4.63;;;6.60;99.90;;;;;;5006729;28;20049;-69
2022/11/22 08:36:08;;;;;;;7.53;4.60;;;6.60;99.90;;;;;;5002940;28;20057;-69
2022/11/22 08:38:35;;;;;;;14.45;5.53;;;6.70;99.90;;;;;;5026871;28;20046;-69
2022/11/22 08:41:05;;;;;;;10.40;5.43;;;6.80;99.90;;;;;;5030596;28;20579;-69
2022/11/22 08:43:33;;;;;;;8.93;4.60;;;6.80;99.90;;;;;;5016620;28;20092;-70
2022/11/22 08:46:00;;;;;;;11.50;5.10;;;6.90;99.90;;;;;;4997212;28;20082;-70
2022/11/22 08:48:30;;;;;;;9.43;4.75;;;7.10;99.90;;;;;;5019020;28;20045;-69
2022/11/22 08:51:03;;;;;;;12.30;4.68;;;7.10;99.90;;;;;;5015277;28;20041;-70
2022/11/22 08:53:32;;;;;;;16.77;8.32;;;7.20;99.90;;;;;;5028045;28;20132;-70
2022/11/22 08:56:01;;;;;;;12.02;5.32;;;7.30;99.90;;;;;;5029322;28;20056;-70
2022/11/22 08:58:29;;;;;;;13.35;4.75;;;7.40;99.90;;;;;;5021097;28;20053;-70
2022/11/22 09:01:02;;;;;;;9.23;4.38;;;7.40;99.90;;;;;;5022347;28;20045;-71
2022/11/22 09:03:29;;;;;;;10.05;4.28;;;7.50;99.90;;;;;;5016154;28;20049;-70
2022/11/22 09:06:04;;;;;;;11.98;4.57;;;7.50;99.90;;;;;;5025641;28;20057;-70
2022/11/22 09:08:52;;;;;;;14.57;4.90;;;7.50;99.90;;;;;;5009077;28;20038;-69
2022/11/22 09:11:39;;;;;;;15.80;4.18;;;7.60;99.90;;;;;;5023612;28;20366;-69
2022/11/22 09:14:07;;;;;;;10.45;4.28;;;7.70;99.90;;;;;;5023045;28;20041;-69
2022/11/22 09:16:34;;;;;;;8.15;4.32;;;7.80;99.90;;;;;;5028299;28;20049;-68
2022/11/22 09:19:01;;;;;;;11.88;4.22;;;7.90;99.90;;;;;;5027683;28;20100;-69
2022/11/22 09:21:28;;;;;;;16.33;4.80;;;8.00;99.90;;;;;;5026486;28;20404;-69
2022/11/22 09:23:56;;;;;;;17.60;4.85;;;7.70;99.90;;;;;;5029580;28;20522;-69
2022/11/22 09:26:24;;;;;;;18.50;4.20;;;7.60;99.90;;;;;;5027609;28;20496;-69
2022/11/22 09:28:54;;;;;;;8.95;4.88;;;7.70;99.90;;;;;;5008703;28;20054;-70
2022/11/22 09:31:23;;;;;;;10.88;4.22;;;7.70;99.90;;;;;;5011020;28;20489;-68
2022/11/22 09:33:50;;;;;;;14.02;4.38;;;7.90;99.90;;;;;;5031687;28;20499;-70
2022/11/22 09:36:20;;;;;;;17.77;4.80;;;8.10;99.90;;;;;;5027626;28;20385;-69
2022/11/22 09:38:49;;;;;;;10.75;4.03;;;8.20;99.90;;;;;;4994922;28;20120;-70
2022/11/22 09:41:51;;;;;;;10.30;4.00;;;8.40;99.90;;;;;;5026177;28;20045;-69
2022/11/22 09:44:36;;;;;;;16.50;4.25;;;8.30;99.90;;;;;;5027106;28;20116;-69
2022/11/22 09:47:18;;;;;;;15.85;4.65;;;8.30;99.90;;;;;;5025455;28;20049;-70
2022/11/22 09:50:20;;;;;;;16.15;3.67;;;8.30;99.90;;;;;;5028699;28;20136;-70
2022/11/22 09:52:56;;;;;;;;;;;8.50;99.90;;;;;;4993509;28;20050;-70
2022/11/22 09:55:38;;;;;;;13.45;4.80;;;8.50;99.90;;;;;;5003244;28;19925;-70
2022/11/22 09:58:19;;;;;;;;;;;8.50;99.90;;;;;;4996522;28;20045;-69
2022/11/22 10:00:46;;;;;;;16.13;4.55;;;8.40;99.90;;;;;;4988004;28;19929;-70
2022/11/22 10:03:39;;;;;;;15.70;4.68;;;8.40;99.90;;;;;;4987746;28;20487;-69
2022/11/22 10:06:14;;;;;;;15.52;4.28;;;8.40;99.90;;;;;;4955456;28;20065;-70
2022/11/22 10:08:51;;;;;;;12.05;4.15;;;8.40;99.90;;;;;;4969034;28;20114;-69
2022/11/22 10:11:38;;;;;;;12.68;5.13;;;8.50;99.90;;;;;;5000400;28;20556;-69
2022/11/22 10:14:41;;;;;;;15.73;4.53;;;8.50;99.90;;;;;;5001207;28;20057;-68
2022/11/22 10:17:33;;;;;;;14.85;4.32;;;8.60;99.90;;;;;;4990428;28;20066;-70
2022/11/22 10:20:17;;;;;;;12.68;4.40;;;8.50;99.90;;;;;;5005919;28;20512;-69
2022/11/22 10:22:44;;;;;;;18.85;3.75;;;8.50;99.90;;;;;;5002071;28;20050;-69
2022/11/22 10:25:17;;;;;;;13.02;3.95;;;8.50;99.90;;;;;;4989751;28;20054;-69
2022/11/22 10:27:57;;;;;;;19.10;4.00;;;8.60;99.90;;;;;;5017580;28;20065;-70
2022/11/22 10:30:33;;;;;;;16.38;4.07;;;8.70;99.90;;;;;;5024033;28;20038;-70
2022/11/22 10:33:03;;;;;;;13.15;3.17;;;8.60;99.90;;;;;;5033623;28;20057;-70
2022/11/22 10:35:58;;;;;;;10.23;3.17;;;8.40;99.90;;;;;;5027537;28;20038;-70
2022/11/22 10:38:43;;;;;;;10.00;3.00;;;8.50;99.90;;;;;;5012416;28;20053;-70
2022/11/22 10:41:45;;;;;;;10.80;3.35;;;8.60;99.90;;;;;;5004140;28;20081;-70
2022/11/22 10:44:59;;;;;;;10.25;3.13;;;8.50;99.90;;;;;;5018636;28;20065;-69
2022/11/22 10:47:35;;;;;;;14.30;3.47;;;8.50;99.90;;;;;;5030721;28;20506;-72
2022/11/22 10:50:14;;;;;;;13.40;3.47;;;8.50;99.90;;;;;;5031438;28;20507;-70
2022/11/22 10:53:09;;;;;;;11.05;3.30;;;8.40;99.90;;;;;;5011944;28;20138;-71
2022/11/22 10:56:12;;;;;;;13.40;3.53;;;8.50;99.90;;;;;;5029535;28;20045;-70
2022/11/22 10:59:04;;;;;;;10.85;2.60;;;8.50;99.90;;;;;;5011795;28;20112;-70
2022/11/22 11:01:40;;;;;;;14.73;4.03;;;8.50;99.90;;;;;;5023224;28;20041;-70
2022/11/22 11:04:10;;;;;;;9.10;3.60;;;8.50;99.90;;;;;;5027317;28;20045;-70
2022/11/22 11:06:49;;;;;;;8.95;3.25;;;8.50;99.90;;;;;;5018485;28;20056;-70
2022/11/22 11:09:40;;;;;;;9.20;3.78;;;8.40;99.90;;;;;;5028842;28;20388;-69
2022/11/22 11:12:41;;;;;;;11.30;2.85;;;8.50;99.90;;;;;;5016174;28;20187;-69
2022/11/22 11:15:19;;;;;;;16.60;3.17;;;8.60;99.90;;;;;;5023156;28;20406;-71
2022/11/22 11:17:53;;;;;;;10.63;4.00;;;8.70;99.90;;;;;;5016279;28;20064;-70
2022/11/22 11:20:32;;;;;;;14.25;3.35;;;8.70;99.90;;;;;;5030873;28;20125;-69
2022/11/22 11:22:59;;;;;;;14.82;4.10;;;8.70;99.90;;;;;;5019864;28;20526;-70
2022/11/22 11:25:42;;;;;;;;;;;8.80;99.90;;;;;;5005530;28;20061;-71
2022/11/22 11:28:22;;;;;;;7.72;2.97;;;8.80;99.90;;;;;;5026479;28;19928;-69
2022/11/22 11:30:52;;;;;;;12.00;3.10;;;9.10;99.90;;;;;;5031414;28;20391;-71
2022/11/22 11:33:31;;;;;;;11.48;3.38;;;9.20;99.90;;;;;;5032225;28;20575;-70
2022/11/22 11:36:23;;;;;;;11.85;3.17;;;9.10;99.90;;;;;;5021101;28;20046;-69
2022/11/22 11:38:54;;;;;;;10.80;3.70;;;9.10;99.90;;;;;;5024598;28;20252;-69
2022/11/22 11:41:27;;;;;;;6.10;2.93;;;9.30;99.90;;;;;;5027704;28;20038;-69
2022/11/22 11:43:56;;;;;;;10.80;3.08;;;9.30;99.90;;;;;;5026717;28;20047;-69
2022/11/22 11:46:26;;;;;;;8.85;3.03;;;9.20;99.90;;;;;;5028538;28;20084;-69
2022/11/22 11:49:07;;;;;;;10.75;3.20;;;9.30;99.90;;;;;;5029283;28;20551;-69
2022/11/22 11:51:42;;;;;;;6.93;3.08;;;9.40;99.90;;;;;;5011049;28;20041;-69
2022/11/22 11:54:39;;;;;;;9.55;3.25;;;9.60;99.90;;;;;;5020490;28;20124;-69
2022/11/22 11:57:23;;;;;;;12.93;3.47;;;10.20;99.90;;;;;;5024588;28;20062;-69
2022/11/22 11:59:51;;;;;;;10.95;3.30;;;10.50;99.90;;;;;;5009822;28;20049;-70
2022/11/22 12:02:26;;;;;;;10.93;3.30;;;10.10;99.90;;;;;;5024516;28;20107;-69
2022/11/22 12:05:01;;;;;;;11.52;3.20;;;10.20;99.90;;;;;;5025067;28;20057;-69
2022/11/22 12:07:35;;;;;;;12.55;4.00;;;10.70;99.90;;;;;;5023195;28;20046;-69
2022/11/22 12:10:28;;;;;;;10.02;3.72;;;11.00;99.90;;;;;;5030026;28;20427;-69
2022/11/22 12:13:26;;;;;;;15.07;3.65;;;11.20;99.90;;;;;;5029988;28;20049;-70
2022/11/22 12:16:06;;;;;;;9.70;3.63;;;11.00;99.90;;;;;;5024982;28;20045;-69
2022/11/22 12:18:42;;;;;;;11.15;3.50;;;10.80;99.90;;;;;;5028998;28;20120;-69
2022/11/22 12:21:37;;;;;;;9.50;3.25;;;10.80;99.90;;;;;;5028945;28;20053;-69
2022/11/22 12:24:35;;;;;;;13.80;3.40;;;10.50;99.90;;;;;;5022250;28;20061;-69
2022/11/22 12:27:23;;;;;;;10.27;3.80;;;10.20;99.90;;;;;;5025070;28;20041;-69
2022/11/22 12:29:51;;;;;;;7.93;3.35;;;9.90;99.90;;;;;;5028608;28;20049;-70
2022/11/22 12:32:29;;;;;;;8.02;3.50;;;9.90;99.90;;;;;;5024840;28;20046;-70
2022/11/22 12:35:15;;;;;;;9.48;3.20;;;9.90;99.90;;;;;;5028703;28;20508;-70
2022/11/22 12:37:53;;;;;;;8.65;3.38;;;9.80;99.90;;;;;;5018779;28;20389;-70
2022/11/22 12:40:24;;;;;;;6.50;3.05;;;9.50;99.90;;;;;;5026491;28;20147;-69
2022/11/22 12:43:07;;;;;;;12.45;3.75;;;9.40;99.90;;;;;;5030321;28;20061;-70
2022/11/22 12:45:39;;;;;;;11.70;3.72;;;9.40;99.90;;;;;;5020711;28;20164;-69
2022/11/22 12:48:15;;;;;;;9.23;3.28;;;9.20;99.90;;;;;;5028076;28;20045;-69
2022/11/22 12:50:45;;;;;;;8.95;3.42;;;9.10;99.90;;;;;;5028909;28;20045;-68
2022/11/22 12:53:14;;;;;;;10.15;3.45;;;9.10;99.90;;;;;;5028284;28;20536;-69
2022/11/22 12:55:57;;;;;;;6.68;2.97;;;9.10;99.90;;;;;;5023572;28;20045;-70
2022/11/22 12:59:09;;;;;;;14.65;3.60;;;9.10;99.90;;;;;;5029451;28;20064;-69
2022/11/22 13:01:47;;;;;;;12.35;3.25;;;9.00;99.90;;;;;;4998146;28;20058;-69
2022/11/22 13:04:36;;;;;;;13.93;3.72;;;8.80;99.90;;;;;;5028022;28;20092;-69
2022/11/22 13:07:44;;;;;;;8.52;3.53;;;8.70;99.90;;;;;;5008007;28;20062;-69
2022/11/22 13:10:37;;;;;;;9.82;3.45;;;8.70;99.90;;;;;;5027751;28;20107;-70
2022/11/22 13:13:15;;;;;;;15.02;3.28;;;8.70;99.90;;;;;;5014710;28;20053;-69
2022/11/22 13:15:44;;;;;;;7.47;3.22;;;8.60;99.90;;;;;;5016616;28;20048;-68
2022/11/22 13:18:15;;;;;;;9.88;3.15;;;8.60;99.90;;;;;;5027890;28;20074;-70
2022/11/22 13:20:58;;;;;;;15.00;3.90;;;8.60;99.90;;;;;;5027682;28;20041;-68
2022/11/22 13:23:50;;;;;;;10.35;3.40;;;8.70;99.90;;;;;;5019002;28;20049;-69
2022/11/22 13:26:59;;;;;;;7.32;3.10;;;8.70;99.90;;;;;;5027593;28;20515;-69
2022/11/22 13:29:29;;;;;;;12.25;3.20;;;8.70;99.90;;;;;;5025413;28;20049;-70
2022/11/22 13:32:11;;;;;;;8.07;3.67;;;8.70;99.90;;;;;;5026827;28;20396;-70
2022/11/22 13:35:00;;;;;;;7.97;3.10;;;8.70;99.90;;;;;;5031601;28;20053;-70
2022/11/22 13:37:29;;;;;;;6.63;3.00;;;8.60;99.90;;;;;;5013867;28;20042;-70